ASP407 KPDX-KAST
Flight info
| Callsign | ASP407 |
|---|---|
| Flight time | 0h 18m |
| Altitude | 10000 |
| Route | ZINKY |
| Aircraft | B461/M-SDFGIRWY/LB1 |
Departure
| Time | 2026-04-16 21:52 |
|---|---|
| Airport | Portland International Airport (KPDX) |
Arrival
| Time | 2026-04-16 22:11 |
|---|---|
| Airport | Astoria Regional Airport (KAST) |
| Time | Latitude | Longitude | Altitude | Speed | Heading |
|---|---|---|---|---|---|
| 2026-04-16 21:32 | 45.59100 | -122.59628 | 25 ft | 0 kts | 7° |
| 2026-04-16 21:42 | 45.59098 | -122.59628 | 25 ft | 1 kts | 7° |
| 2026-04-16 21:42 | 45.59084 | -122.59631 | 25 ft | 2 kts | 7° |
| 2026-04-16 21:42 | 45.59071 | -122.59634 | 25 ft | 0 kts | 7° |
| 2026-04-16 21:42 | 45.59059 | -122.59634 | 25 ft | 2 kts | 2° |
| 2026-04-16 21:43 | 45.59037 | -122.59634 | 25 ft | 3 kts | 355° |
| 2026-04-16 21:43 | 45.59024 | -122.59632 | 25 ft | 0 kts | 358° |
| 2026-04-16 21:45 | 45.59034 | -122.59647 | 25 ft | 4 kts | 299° |
| 2026-04-16 21:45 | 45.59055 | -122.59707 | 25 ft | 9 kts | 296° |
| 2026-04-16 21:46 | 45.59090 | -122.59808 | 25 ft | 12 kts | 298° |
| 2026-04-16 21:46 | 45.59145 | -122.59905 | 25 ft | 13 kts | 348° |
| 2026-04-16 21:46 | 45.59226 | -122.59843 | 26 ft | 14 kts | 43° |
| 2026-04-16 21:46 | 45.59300 | -122.59737 | 28 ft | 15 kts | 46° |
| 2026-04-16 21:47 | 45.59360 | -122.59614 | 28 ft | 16 kts | 94° |
| 2026-04-16 21:47 | 45.59315 | -122.59461 | 28 ft | 18 kts | 118° |
| 2026-04-16 21:47 | 45.59246 | -122.59283 | 25 ft | 21 kts | 118° |
| 2026-04-16 21:47 | 45.59172 | -122.59094 | 25 ft | 22 kts | 119° |
| 2026-04-16 21:48 | 45.59095 | -122.58895 | 25 ft | 23 kts | 119° |
| 2026-04-16 21:48 | 45.59015 | -122.58694 | 25 ft | 23 kts | 119° |
| 2026-04-16 21:48 | 45.58936 | -122.58485 | 25 ft | 24 kts | 119° |
| 2026-04-16 21:48 | 45.58854 | -122.58275 | 25 ft | 24 kts | 119° |
| 2026-04-16 21:49 | 45.58769 | -122.58059 | 25 ft | 25 kts | 121° |
| 2026-04-16 21:49 | 45.58682 | -122.57842 | 25 ft | 25 kts | 120° |
| 2026-04-16 21:49 | 45.58597 | -122.57616 | 25 ft | 26 kts | 118° |
| 2026-04-16 21:49 | 45.58508 | -122.57391 | 25 ft | 26 kts | 118° |
| 2026-04-16 21:50 | 45.58418 | -122.57164 | 25 ft | 26 kts | 119° |
| 2026-04-16 21:50 | 45.58331 | -122.56930 | 25 ft | 22 kts | 121° |
| 2026-04-16 21:50 | 45.58278 | -122.56805 | 25 ft | 14 kts | 119° |
| 2026-04-16 21:50 | 45.58304 | -122.56696 | 25 ft | 12 kts | 20° |
| 2026-04-16 21:51 | 45.58362 | -122.56698 | 25 ft | 0 kts | 299° |
| 2026-04-16 21:52 | 45.58419 | -122.56847 | 25 ft | 59 kts | 299° |
| 2026-04-16 21:52 | 45.58769 | -122.57743 | 134 ft | 133 kts | 299° |
| 2026-04-16 21:52 | 45.59248 | -122.58965 | 719 ft | 156 kts | 300° |
| 2026-04-16 21:52 | 45.59815 | -122.60452 | 1302 ft | 185 kts | 299° |
| 2026-04-16 21:53 | 45.60437 | -122.62192 | 1892 ft | 211 kts | 297° |
| 2026-04-16 21:53 | 45.61152 | -122.64187 | 2453 ft | 237 kts | 297° |
| 2026-04-16 21:53 | 45.61925 | -122.66321 | 3039 ft | 249 kts | 297° |
| 2026-04-16 21:53 | 45.62739 | -122.68555 | 3630 ft | 257 kts | 297° |
| 2026-04-16 21:54 | 45.63771 | -122.70624 | 4220 ft | 263 kts | 312° |
| 2026-04-16 21:54 | 45.65082 | -122.72453 | 4808 ft | 267 kts | 318° |
| 2026-04-16 21:54 | 45.66393 | -122.74356 | 5450 ft | 270 kts | 314° |
| 2026-04-16 21:54 | 45.67707 | -122.76255 | 6089 ft | 271 kts | 314° |
| 2026-04-16 21:55 | 45.69037 | -122.78195 | 6678 ft | 275 kts | 314° |
| 2026-04-16 21:55 | 45.70379 | -122.80152 | 7282 ft | 277 kts | 314° |
| 2026-04-16 21:55 | 45.71728 | -122.82121 | 7868 ft | 279 kts | 314° |
| 2026-04-16 21:55 | 45.73079 | -122.84093 | 8414 ft | 281 kts | 314° |
| 2026-04-16 21:56 | 45.74452 | -122.86099 | 8950 ft | 283 kts | 314° |
| 2026-04-16 21:56 | 45.75831 | -122.88115 | 9464 ft | 286 kts | 314° |
| 2026-04-16 21:56 | 45.77219 | -122.90146 | 9891 ft | 291 kts | 314° |
| 2026-04-16 21:56 | 45.78663 | -122.92260 | 9976 ft | 307 kts | 314° |
| 2026-04-16 21:57 | 45.80184 | -122.94489 | 9960 ft | 310 kts | 314° |
| 2026-04-16 21:57 | 45.81673 | -122.96672 | 9965 ft | 307 kts | 314° |
| 2026-04-16 21:57 | 45.83159 | -122.98853 | 9984 ft | 307 kts | 314° |
| 2026-04-16 21:57 | 45.84647 | -123.01038 | 9987 ft | 307 kts | 314° |
| 2026-04-16 21:58 | 45.86155 | -123.03255 | 9987 ft | 308 kts | 314° |
| 2026-04-16 21:58 | 45.87644 | -123.05444 | 9987 ft | 308 kts | 314° |
| 2026-04-16 21:58 | 45.89137 | -123.07642 | 9988 ft | 308 kts | 314° |
| 2026-04-16 21:58 | 45.90630 | -123.09840 | 9988 ft | 308 kts | 314° |
| 2026-04-16 21:59 | 45.92113 | -123.12027 | 9987 ft | 308 kts | 314° |
| 2026-04-16 21:59 | 45.93606 | -123.14230 | 9988 ft | 308 kts | 314° |
| 2026-04-16 21:59 | 45.95102 | -123.16441 | 9987 ft | 304 kts | 314° |
| 2026-04-16 21:59 | 45.96516 | -123.18534 | 9975 ft | 282 kts | 314° |
| 2026-04-16 22:00 | 45.97860 | -123.20523 | 9381 ft | 280 kts | 314° |
| 2026-04-16 22:00 | 45.99218 | -123.22533 | 8630 ft | 284 kts | 314° |
| 2026-04-16 22:00 | 46.00590 | -123.24567 | 8217 ft | 281 kts | 314° |
| 2026-04-16 22:00 | 46.01945 | -123.26578 | 7880 ft | 277 kts | 314° |
| 2026-04-16 22:01 | 46.03268 | -123.28542 | 7484 ft | 276 kts | 314° |
| 2026-04-16 22:01 | 46.04606 | -123.30529 | 7105 ft | 275 kts | 314° |
| 2026-04-16 22:01 | 46.05932 | -123.32502 | 6731 ft | 273 kts | 314° |
| 2026-04-16 22:01 | 46.07236 | -123.34443 | 6347 ft | 271 kts | 314° |
| 2026-04-16 22:02 | 46.08537 | -123.36383 | 5934 ft | 271 kts | 314° |
| 2026-04-16 22:02 | 46.09842 | -123.38332 | 5581 ft | 268 kts | 314° |
| 2026-04-16 22:02 | 46.11138 | -123.40271 | 5233 ft | 267 kts | 314° |
| 2026-04-16 22:02 | 46.12218 | -123.42418 | 4899 ft | 265 kts | 294° |
| 2026-04-16 22:03 | 46.12670 | -123.44974 | 4553 ft | 263 kts | 278° |
| 2026-04-16 22:03 | 46.12938 | -123.47550 | 4204 ft | 262 kts | 279° |
| 2026-04-16 22:03 | 46.13201 | -123.50142 | 4031 ft | 254 kts | 278° |
| 2026-04-16 22:03 | 46.13420 | -123.52554 | 4007 ft | 235 kts | 277° |
| 2026-04-16 22:04 | 46.13610 | -123.54787 | 4004 ft | 216 kts | 277° |
| 2026-04-16 22:04 | 46.13781 | -123.56912 | 4006 ft | 209 kts | 277° |
| 2026-04-16 22:04 | 46.13939 | -123.58974 | 3851 ft | 206 kts | 276° |
| 2026-04-16 22:04 | 46.14086 | -123.60937 | 3618 ft | 184 kts | 276° |
| 2026-04-16 22:05 | 46.14208 | -123.62612 | 3414 ft | 156 kts | 276° |
| 2026-04-16 22:05 | 46.14310 | -123.64051 | 3219 ft | 132 kts | 276° |
| 2026-04-16 22:05 | 46.14397 | -123.65284 | 3044 ft | 118 kts | 275° |
| 2026-04-16 22:05 | 46.14458 | -123.66232 | 2918 ft | 118 kts | 275° |
| 2026-04-16 22:06 | 46.14532 | -123.67406 | 2757 ft | 115 kts | 275° |
| 2026-04-16 22:06 | 46.14678 | -123.69660 | 2449 ft | 112 kts | 275° |
| 2026-04-16 22:06 | 46.14751 | -123.70774 | 2296 ft | 113 kts | 275° |
| 2026-04-16 22:07 | 46.14827 | -123.71909 | 2140 ft | 113 kts | 275° |
| 2026-04-16 22:07 | 46.14903 | -123.73034 | 1985 ft | 114 kts | 275° |
| 2026-04-16 22:07 | 46.14981 | -123.74181 | 1829 ft | 114 kts | 271° |
| 2026-04-16 22:07 | 46.15059 | -123.75301 | 1666 ft | 109 kts | 271° |
| 2026-04-16 22:08 | 46.15132 | -123.76360 | 1520 ft | 106 kts | 271° |
| 2026-04-16 22:08 | 46.15202 | -123.77421 | 1376 ft | 108 kts | 271° |
| 2026-04-16 22:08 | 46.15274 | -123.78503 | 1230 ft | 110 kts | 271° |
| 2026-04-16 22:08 | 46.15349 | -123.79594 | 1081 ft | 108 kts | 271° |
| 2026-04-16 22:09 | 46.15423 | -123.80661 | 933 ft | 105 kts | 271° |
| 2026-04-16 22:09 | 46.15493 | -123.81691 | 787 ft | 103 kts | 271° |
| 2026-04-16 22:09 | 46.15562 | -123.82732 | 643 ft | 103 kts | 271° |
| 2026-04-16 22:09 | 46.15631 | -123.83756 | 501 ft | 103 kts | 270° |
| 2026-04-16 22:10 | 46.15701 | -123.84793 | 359 ft | 103 kts | 270° |
| 2026-04-16 22:10 | 46.15772 | -123.85824 | 210 ft | 104 kts | 271° |
| 2026-04-16 22:10 | 46.15839 | -123.86867 | 29 ft | 103 kts | 270° |
| 2026-04-16 22:10 | 46.15895 | -123.87711 | 19 ft | 61 kts | 276° |
| 2026-04-16 22:11 | 46.15916 | -123.88039 | 22 ft | 15 kts | 263° |
| 2026-04-16 22:11 | 46.15850 | -123.88037 | 22 ft | 11 kts | 152° |
| 2026-04-16 22:11 | 46.15773 | -123.88017 | 22 ft | 11 kts | 218° |
| 2026-04-16 22:11 | 46.15723 | -123.88086 | 22 ft | 10 kts | 156° |
| 2026-04-16 22:12 | 46.15641 | -123.88026 | 22 ft | 11 kts | 153° |
| 2026-04-16 22:12 | 46.15588 | -123.88066 | 22 ft | 9 kts | 226° |
| 2026-04-16 22:12 | 46.15568 | -123.88080 | 22 ft | 0 kts | 153° |